createdAt,value
2022-09-06T00:02:42.737Z,60.17
2022-09-06T00:07:43.908Z,56.25
2022-09-06T00:12:46.245Z,56.98
2022-09-06T00:17:48.698Z,58.63
2022-09-06T00:22:49.827Z,60.11
2022-09-06T00:27:55.883Z,67.92
2022-09-06T00:32:57.101Z,66.80
2022-09-06T00:37:59.866Z,62.99
2022-09-06T00:43:01.211Z,61.25
2022-09-06T00:48:04.146Z,60.37
2022-09-06T00:53:05.391Z,56.39
2022-09-06T00:58:07.002Z,55.49
2022-09-06T01:03:09.277Z,58.03
2022-09-06T01:08:30.732Z,58.73
2022-09-06T01:13:33.487Z,68.47
2022-09-06T01:18:53.177Z,63.24
2022-09-06T01:24:19.016Z,59.81
2022-09-06T01:29:57.889Z,56.54
2022-09-06T01:35:18.373Z,58.23
2022-09-06T01:40:20.231Z,60.39
2022-09-06T01:45:34.310Z,67.21
2022-09-06T01:50:51.582Z,67.05
2022-09-06T01:56:30.897Z,62.49
2022-09-06T02:01:47.641Z,60.57
2022-09-06T02:06:56.770Z,56.95
2022-09-06T02:12:01.312Z,58.46
2022-09-06T02:17:04.966Z,60.21
2022-09-06T02:22:10.738Z,66.82
2022-09-06T02:27:12.651Z,66.63
2022-09-06T02:32:21.116Z,63.08
2022-09-06T02:37:26.045Z,60.89
2022-09-06T02:42:27.536Z,60.59
2022-09-06T02:47:29.155Z,57.28
2022-09-06T02:52:30.369Z,58.36
2022-09-06T02:57:31.561Z,60.34
2022-09-06T03:02:32.929Z,66.31
2022-09-06T03:07:34.185Z,67.76
2022-09-06T03:12:35.874Z,64.05
2022-09-06T03:17:37.689Z,61.70
2022-09-06T03:22:39.747Z,60.51
2022-09-06T03:27:40.883Z,59.89
2022-09-06T03:32:42.066Z,56.95
2022-09-06T03:37:43.594Z,58.44
2022-09-06T03:42:45.855Z,60.42
2022-09-06T03:47:47.924Z,66.64
2022-09-06T03:52:49.152Z,66.75
2022-09-06T03:57:50.328Z,63.94
2022-09-06T04:02:51.517Z,61.68
2022-09-06T04:07:52.799Z,59.84
2022-09-06T04:12:53.936Z,57.09
2022-09-06T04:17:55.221Z,59.13
2022-09-06T04:22:56.481Z,65.93
2022-09-06T04:27:57.686Z,65.50
2022-09-06T04:32:59.137Z,62.65
2022-09-06T04:38:01.342Z,60.55
2022-09-06T04:43:02.516Z,57.10
2022-09-06T04:48:04.066Z,58.30
2022-09-06T04:53:06.565Z,60.17
2022-09-06T04:58:08.080Z,67.11
2022-09-06T05:03:10.071Z,64.19
2022-09-06T05:08:11.276Z,62.00
2022-09-06T05:13:12.438Z,60.68
2022-09-06T05:18:16.158Z,57.28
2022-09-06T05:23:18.206Z,59.83
2022-09-06T05:28:19.884Z,65.99
2022-09-06T05:33:22.048Z,63.44
2022-09-06T05:38:25.286Z,62.40
2022-09-06T05:43:28.568Z,61.28
2022-09-06T05:48:34.639Z,61.00
2022-09-06T05:53:41.024Z,60.24
2022-09-06T05:58:42.805Z,55.59
2022-09-06T06:04:04.305Z,55.92
2022-09-06T06:09:05.541Z,62.41
2022-09-06T06:14:07.660Z,56.42
2022-09-06T06:19:09.108Z,57.09
2022-09-06T06:24:10.367Z,62.76
2022-09-06T06:29:11.604Z,53.04
2022-09-06T06:34:13.431Z,53.99
2022-09-06T06:39:14.787Z,53.55
2022-09-06T06:44:15.978Z,52.84
2022-09-06T06:49:17.119Z,50.75
2022-09-06T06:54:18.661Z,50.52
2022-09-06T06:59:19.967Z,52.88
2022-09-06T07:04:22.375Z,49.18
2022-09-06T07:09:23.808Z,45.84
2022-09-06T07:14:24.981Z,46.19
2022-09-06T07:24:47.624Z,44.11
2022-09-06T07:29:48.816Z,43.13
2022-09-06T07:34:49.933Z,44.64
2022-09-06T07:39:52.057Z,41.79
2022-09-06T07:44:56.986Z,41.21
2022-09-06T07:55:19.639Z,41.93
2022-09-06T08:00:21.094Z,42.26
2022-09-06T08:10:43.356Z,42.98
2022-09-06T08:15:44.518Z,43.11
2022-09-06T08:20:46.116Z,43.81
2022-09-06T08:26:05.799Z,44.70
2022-09-06T08:31:12.605Z,44.47
2022-09-06T08:36:14.167Z,43.92
2022-09-06T08:41:37.541Z,44.98
2022-09-06T08:46:41.351Z,42.78
2022-09-06T08:51:49.825Z,44.57
2022-09-06T08:57:08.645Z,42.45
2022-09-06T09:02:17.124Z,43.14
2022-09-06T09:07:47.362Z,43.28
2022-09-06T09:12:49.601Z,42.47
2022-09-06T09:17:53.126Z,42.78
2022-09-06T09:22:55.002Z,42.36
2022-09-06T09:27:57.120Z,41.36
2022-09-06T09:32:58.710Z,39.98
2022-09-06T09:38:12.219Z,40.18
2022-09-06T09:43:22.855Z,39.82
2022-09-06T09:48:26.387Z,39.45
2022-09-06T09:53:28.657Z,39.17
2022-09-06T09:58:35.518Z,39.27
2022-09-06T10:08:58.842Z,39.31
2022-09-06T10:14:26.119Z,39.36
2022-09-06T10:19:47.437Z,38.56
2022-09-06T10:24:48.511Z,37.08
2022-09-06T10:30:01.089Z,37.36
2022-09-06T10:35:37.402Z,36.75
2022-09-06T10:41:00.695Z,37.57
2022-09-06T10:46:08.535Z,36.84
2022-09-06T10:51:33.708Z,36.63
2022-09-06T10:56:48.919Z,37.36
2022-09-06T11:02:11.786Z,37.67
2022-09-06T11:07:33.535Z,38.31
2022-09-06T11:12:53.521Z,38.20
2022-09-06T11:18:09.058Z,38.81
2022-09-06T11:23:35.277Z,39.32
2022-09-06T11:28:44.220Z,40.97
2022-09-06T11:33:48.307Z,41.65
2022-09-06T11:38:58.642Z,41.40
2022-09-06T11:44:00.222Z,41.09
2022-09-06T11:49:05.655Z,41.13
2022-09-06T11:54:09.748Z,41.12
2022-09-06T11:59:19.623Z,41.11
2022-09-06T12:04:22.927Z,40.42
2022-09-06T12:09:43.239Z,40.05
2022-09-06T12:14:48.379Z,39.56
2022-09-06T12:20:07.301Z,39.49
2022-09-06T12:25:19.400Z,39.05
2022-09-06T12:30:43.773Z,38.88
2022-09-06T12:36:02.292Z,39.06
2022-09-06T12:41:07.499Z,38.90
2022-09-06T12:46:08.832Z,38.62
2022-09-06T12:51:19.502Z,38.87
2022-09-06T12:56:22.545Z,39.07
2022-09-06T13:01:34.023Z,39.35
2022-09-06T13:06:42.047Z,39.56
2022-09-06T13:11:48.123Z,39.96
2022-09-06T13:16:52.362Z,39.38
2022-09-06T13:21:54.529Z,39.13
2022-09-06T13:26:55.878Z,38.13
2022-09-06T13:32:01.395Z,37.95
2022-09-06T13:37:06.520Z,37.53
2022-09-06T13:42:10.935Z,36.99
2022-09-06T13:47:12.140Z,36.89
2022-09-06T13:52:14.211Z,37.43
2022-09-06T13:57:16.212Z,38.08
2022-09-06T14:02:19.782Z,37.77
2022-09-06T14:07:21.066Z,37.74
2022-09-06T14:12:22.287Z,37.91
2022-09-06T14:17:23.444Z,38.03
2022-09-06T14:22:24.939Z,38.39
2022-09-06T14:27:26.543Z,38.58
2022-09-06T14:32:27.805Z,38.84
2022-09-06T14:37:29.059Z,39.60
2022-09-06T14:42:30.253Z,39.28
2022-09-06T14:47:32.605Z,40.45
2022-09-06T14:52:34.216Z,40.81
2022-09-06T14:57:35.740Z,40.91
2022-09-06T15:02:37.070Z,41.19
2022-09-06T15:07:38.459Z,41.42
2022-09-06T15:12:39.666Z,41.46
2022-09-06T15:17:41.339Z,41.69
2022-09-06T15:22:42.540Z,41.63
2022-09-06T15:27:43.733Z,41.35
2022-09-06T15:32:45.455Z,40.54
2022-09-06T15:37:47.808Z,40.14
2022-09-06T15:42:49.095Z,39.72
2022-09-06T15:47:51.363Z,39.71
2022-09-06T15:52:52.611Z,39.59
2022-09-06T15:57:53.796Z,39.74
2022-09-06T16:02:57.156Z,40.01
2022-09-06T16:07:59.792Z,39.89
2022-09-06T16:13:01.157Z,40.42
2022-09-06T16:18:04.618Z,40.56
2022-09-06T16:23:05.812Z,40.92
2022-09-06T16:28:08.296Z,41.44
2022-09-06T16:33:11.754Z,41.82
2022-09-06T16:38:14.518Z,42.49
2022-09-06T16:43:15.814Z,43.00
2022-09-06T16:48:16.974Z,43.32
2022-09-06T16:53:21.957Z,43.82
2022-09-06T16:58:23.616Z,44.51
2022-09-06T17:03:24.897Z,45.35
2022-09-06T17:08:30.749Z,45.42
2022-09-06T17:13:32.765Z,45.78
2022-09-06T17:18:35.301Z,46.15
2022-09-06T17:23:39.443Z,46.44
2022-09-06T17:28:40.711Z,46.99
2022-09-06T17:33:42.138Z,47.32
2022-09-06T17:38:44.886Z,47.86
2022-09-06T17:43:47.800Z,48.25
2022-09-06T17:48:51.202Z,49.47
2022-09-06T17:53:53.238Z,50.26
2022-09-06T17:58:58.717Z,50.23
2022-09-06T18:04:00.843Z,50.68
2022-09-06T18:09:08.949Z,50.60
2022-09-06T18:14:15.194Z,51.07
2022-09-06T18:19:18.134Z,51.33
2022-09-06T18:24:20.606Z,51.99
2022-09-06T18:29:22.257Z,51.71
2022-09-06T18:34:23.568Z,51.35
2022-09-06T18:39:24.914Z,51.65
2022-09-06T18:44:33.382Z,51.75
2022-09-06T18:49:35.225Z,51.59
2022-09-06T18:54:36.575Z,51.67
2022-09-06T18:59:37.847Z,51.84
2022-09-06T19:04:38.969Z,52.10
2022-09-06T19:09:40.823Z,51.34
2022-09-06T19:14:41.995Z,52.35
2022-09-06T19:19:43.019Z,53.03
2022-09-06T19:24:44.723Z,52.22
2022-09-06T19:29:46.677Z,54.05
2022-09-06T19:34:48.452Z,52.62
2022-09-06T19:39:49.950Z,53.90
2022-09-06T19:44:51.162Z,54.02
2022-09-06T19:49:52.703Z,55.47
2022-09-06T19:54:53.792Z,55.51
2022-09-06T19:59:54.969Z,54.15
2022-09-06T20:04:56.125Z,55.56
2022-09-06T20:09:57.212Z,56.06
2022-09-06T20:14:58.727Z,54.73
2022-09-06T20:20:00.055Z,56.19
2022-09-06T20:25:01.093Z,56.62
2022-09-06T20:30:02.804Z,55.18
2022-09-06T20:35:04.563Z,56.10
2022-09-06T20:40:07.499Z,55.16
2022-09-06T20:45:09.189Z,55.56
2022-09-06T20:50:11.436Z,55.98
2022-09-06T20:55:12.621Z,56.60
2022-09-06T21:00:14.585Z,58.07
2022-09-06T21:05:15.898Z,56.56
2022-09-06T21:10:17.019Z,58.27
2022-09-06T21:15:18.298Z,59.51
2022-09-06T21:20:19.981Z,59.42
2022-09-06T21:25:21.171Z,56.93
2022-09-06T21:30:22.292Z,57.33
2022-09-06T21:35:23.535Z,57.93
2022-09-06T21:40:24.662Z,59.02
2022-09-06T21:45:25.809Z,59.34
2022-09-06T21:50:26.935Z,60.26
2022-09-06T21:55:32.143Z,60.87
2022-09-06T22:00:34.204Z,72.05
2022-09-06T22:05:35.453Z,68.00
2022-09-06T22:10:36.660Z,62.48
2022-09-06T22:15:39.451Z,57.29
2022-09-06T22:20:40.613Z,57.12
2022-09-06T22:25:42.165Z,58.22
2022-09-06T22:30:43.397Z,58.90
2022-09-06T22:35:44.562Z,60.01
2022-09-06T22:40:45.745Z,60.59
2022-09-06T22:45:51.726Z,67.90
2022-09-06T22:50:53.274Z,69.04
2022-09-06T22:55:55.120Z,64.19
2022-09-06T23:01:03.764Z,61.52
2022-09-06T23:06:05.503Z,57.43
2022-09-06T23:11:12.031Z,55.86
2022-09-06T23:16:18.582Z,58.96
2022-09-06T23:21:22.209Z,58.72
2022-09-06T23:26:31.619Z,58.85
2022-09-06T23:31:33.367Z,60.24
2022-09-06T23:36:35.404Z,69.64
2022-09-06T23:41:36.521Z,65.72
2022-09-06T23:46:37.719Z,60.08
2022-09-06T23:51:39.227Z,55.43
2022-09-06T23:56:40.583Z,55.08
